createdAt,value
2022-09-01T00:00:42.424Z,16.60
2022-09-01T00:03:31.473Z,16.50
2022-09-01T00:06:22.798Z,16.50
2022-09-01T00:09:12.355Z,16.50
2022-09-01T00:12:00.207Z,16.50
2022-09-01T00:14:47.628Z,16.40
2022-09-01T00:17:36.789Z,16.30
2022-09-01T00:20:24.446Z,16.40
2022-09-01T00:23:11.628Z,16.30
2022-09-01T00:25:59.699Z,16.40
2022-09-01T00:28:47.741Z,16.40
2022-09-01T00:31:37.271Z,16.40
2022-09-01T00:34:26.286Z,16.40
2022-09-01T00:37:14.941Z,16.40
2022-09-01T00:40:02.254Z,16.40
2022-09-01T00:42:50.561Z,16.30
2022-09-01T00:45:38.044Z,16.40
2022-09-01T00:48:26.127Z,16.40
2022-09-01T00:51:15.214Z,16.30
2022-09-01T00:54:04.425Z,16.30
2022-09-01T00:56:57.381Z,16.30
2022-09-01T00:59:51.736Z,16.20
2022-09-01T01:02:40.886Z,16.20
2022-09-01T01:05:34.840Z,16.20
2022-09-01T01:08:34.334Z,16.20
2022-09-01T01:11:21.622Z,16.20
2022-09-01T01:14:12.382Z,16.20
2022-09-01T01:17:02.046Z,16.20
2022-09-01T01:20:06.329Z,16.20
2022-09-01T01:23:03.409Z,16.20
2022-09-01T01:25:54.730Z,16.20
2022-09-01T01:28:42.661Z,16.20
2022-09-01T01:31:30.414Z,16.20
2022-09-01T01:34:20.152Z,16.20
2022-09-01T01:37:07.756Z,16.20
2022-09-01T01:39:54.912Z,16.20
2022-09-01T01:42:46.149Z,16.20
2022-09-01T01:45:33.997Z,16.20
2022-09-01T01:48:24.328Z,16.10
2022-09-01T01:51:14.255Z,16.10
2022-09-01T01:54:05.731Z,16.10
2022-09-01T01:56:53.351Z,16.00
2022-09-01T01:59:43.669Z,16.10
2022-09-01T02:02:32.022Z,16.00
2022-09-01T02:05:22.240Z,16.10
2022-09-01T02:08:12.497Z,16.00
2022-09-01T02:11:00.960Z,16.00
2022-09-01T02:13:50.243Z,16.00
2022-09-01T02:16:39.074Z,16.00
2022-09-01T02:19:27.193Z,16.10
2022-09-01T02:22:14.494Z,16.10
2022-09-01T02:25:02.045Z,16.10
2022-09-01T02:27:51.216Z,16.20
2022-09-01T02:30:41.817Z,16.20
2022-09-01T02:33:30.744Z,16.30
2022-09-01T02:36:21.058Z,16.20
2022-09-01T02:39:09.070Z,16.20
2022-09-01T02:41:58.589Z,16.20
2022-09-01T02:44:48.059Z,16.20
2022-09-01T02:47:35.318Z,16.20
2022-09-01T02:50:27.560Z,16.20
2022-09-01T02:53:15.821Z,16.10
2022-09-01T02:56:14.041Z,16.10
2022-09-01T02:59:03.309Z,16.10
2022-09-01T03:01:52.082Z,16.10
2022-09-01T03:04:40.054Z,16.10
2022-09-01T03:07:30.863Z,16.10
2022-09-01T03:10:21.790Z,16.00
2022-09-01T03:13:14.924Z,16.00
2022-09-01T03:16:02.434Z,16.00
2022-09-01T03:18:50.950Z,15.90
2022-09-01T03:21:42.256Z,15.90
2022-09-01T03:24:30.949Z,15.90
2022-09-01T03:27:18.091Z,15.90
2022-09-01T03:30:05.956Z,15.80
2022-09-01T03:32:54.668Z,15.80
2022-09-01T03:35:42.567Z,15.80
2022-09-01T03:38:32.822Z,15.80
2022-09-01T03:41:25.350Z,15.80
2022-09-01T03:44:16.710Z,15.80
2022-09-01T03:47:05.590Z,15.80
2022-09-01T03:49:55.484Z,15.80
2022-09-01T03:52:43.231Z,15.80
2022-09-01T03:55:34.416Z,15.80
2022-09-01T03:58:23.590Z,15.80
2022-09-01T04:01:13.788Z,15.80
2022-09-01T04:04:01.893Z,15.80
2022-09-01T04:06:53.116Z,15.70
2022-09-01T04:09:40.437Z,15.70
2022-09-01T04:12:30.005Z,15.70
2022-09-01T04:15:19.735Z,15.60
2022-09-01T04:18:10.831Z,15.60
2022-09-01T04:21:00.319Z,15.50
2022-09-01T04:23:47.610Z,15.50
2022-09-01T04:26:35.358Z,15.50
2022-09-01T04:29:27.847Z,15.50
2022-09-01T04:32:21.918Z,15.50
2022-09-01T04:35:17.311Z,15.60
2022-09-01T04:38:08.391Z,15.60
2022-09-01T04:40:57.512Z,15.50
2022-09-01T04:43:45.311Z,15.40
2022-09-01T04:46:36.265Z,15.40
2022-09-01T04:49:28.411Z,15.30
2022-09-01T04:52:16.455Z,15.30
2022-09-01T04:55:04.205Z,15.30
2022-09-01T04:57:52.421Z,15.30
2022-09-01T05:00:41.635Z,15.30
2022-09-01T05:03:32.137Z,15.30
2022-09-01T05:06:27.997Z,15.30
2022-09-01T05:09:21.460Z,15.30
2022-09-01T05:12:16.864Z,15.30
2022-09-01T05:15:09.845Z,15.30
2022-09-01T05:18:02.679Z,15.30
2022-09-01T05:20:50.748Z,15.40
2022-09-01T05:23:40.713Z,15.40
2022-09-01T05:26:34.202Z,15.50
2022-09-01T05:29:22.220Z,15.50
2022-09-01T05:32:10.286Z,15.50
2022-09-01T05:34:58.780Z,15.60
2022-09-01T05:37:46.294Z,15.70
2022-09-01T05:40:37.502Z,15.70
2022-09-01T05:43:27.960Z,15.70
2022-09-01T05:46:17.184Z,15.70
2022-09-01T05:49:07.257Z,15.70
2022-09-01T05:51:59.079Z,15.70
2022-09-01T05:54:48.089Z,15.70
2022-09-01T05:57:40.228Z,15.70
2022-09-01T06:00:35.079Z,15.70
2022-09-01T06:03:25.996Z,15.70
2022-09-01T06:06:15.312Z,15.70
2022-09-01T06:09:05.193Z,15.80
2022-09-01T06:11:53.255Z,15.90
2022-09-01T06:14:41.910Z,15.90
2022-09-01T06:17:31.851Z,16.00
2022-09-01T06:20:23.303Z,16.00
2022-09-01T06:23:12.683Z,16.10
2022-09-01T06:26:00.945Z,16.20
2022-09-01T06:28:54.564Z,16.20
2022-09-01T06:31:47.586Z,16.30
2022-09-01T06:34:36.439Z,16.30
2022-09-01T06:37:24.266Z,16.40
2022-09-01T06:40:18.402Z,16.40
2022-09-01T06:43:08.289Z,16.50
2022-09-01T06:46:02.557Z,16.60
2022-09-01T06:48:54.038Z,16.70
2022-09-01T06:51:41.280Z,16.80
2022-09-01T06:54:31.632Z,16.90
2022-09-01T07:00:29.090Z,16.90
2022-09-01T07:03:18.450Z,17.00
2022-09-01T07:09:47.350Z,17.10
2022-09-01T07:13:08.067Z,17.10
2022-09-01T07:19:13.354Z,17.10
2022-09-01T07:22:09.952Z,17.00
2022-09-01T07:25:17.848Z,17.00
2022-09-01T07:28:36.077Z,17.00
2022-09-01T07:34:38.704Z,17.10
2022-09-01T07:44:10.582Z,16.90
2022-09-01T07:47:20.283Z,16.80
2022-09-01T07:50:41.412Z,16.80
2022-09-01T07:53:39.854Z,16.90
2022-09-01T07:56:35.169Z,17.00
2022-09-01T07:59:28.095Z,17.00
2022-09-01T08:02:23.902Z,17.00
2022-09-01T08:05:16.149Z,17.10
2022-09-01T08:08:04.459Z,17.20
2022-09-01T08:11:08.027Z,17.20
2022-09-01T08:13:59.381Z,17.40
2022-09-01T08:16:54.527Z,17.50
2022-09-01T08:19:44.106Z,17.60
2022-09-01T08:22:34.163Z,17.60
2022-09-01T08:25:33.967Z,17.70
2022-09-01T08:28:29.912Z,17.80
2022-09-01T08:31:20.611Z,17.90
2022-09-01T08:34:09.031Z,18.00
2022-09-01T08:36:56.932Z,18.10
2022-09-01T08:39:44.374Z,18.20
2022-09-01T08:42:46.196Z,18.30
2022-09-01T08:45:43.257Z,18.30
2022-09-01T08:49:23.536Z,18.40
2022-09-01T08:51:52.994Z,18.30
2022-09-01T08:54:47.109Z,18.30
2022-09-01T08:57:38.101Z,18.30
2022-09-01T09:00:51.446Z,18.30
2022-09-01T09:03:49.708Z,18.30
2022-09-01T09:06:44.935Z,18.40
2022-09-01T09:09:41.959Z,18.40
2022-09-01T09:12:49.434Z,18.50
2022-09-01T09:15:45.113Z,18.60
2022-09-01T09:18:40.628Z,18.80
2022-09-01T09:21:34.719Z,18.90
2022-09-01T09:24:37.081Z,18.90
2022-09-01T09:27:30.348Z,19.00
2022-09-01T09:30:23.440Z,19.10
2022-09-01T09:33:53.558Z,19.20
2022-09-01T09:36:42.087Z,19.30
2022-09-01T09:39:30.812Z,19.40
2022-09-01T09:42:19.591Z,19.30
2022-09-01T09:45:15.081Z,19.30
2022-09-01T09:48:08.277Z,19.30
2022-09-01T09:51:17.667Z,19.20
2022-09-01T09:54:15.295Z,19.20
2022-09-01T09:57:11.451Z,19.20
2022-09-01T10:00:03.416Z,19.40
2022-09-01T10:03:04.587Z,19.60
2022-09-01T10:05:57.413Z,19.90
2022-09-01T10:08:48.277Z,20.20
2022-09-01T10:11:41.284Z,20.30
2022-09-01T10:14:52.116Z,20.50
2022-09-01T10:17:43.947Z,20.70
2022-09-01T10:20:35.037Z,20.60
2022-09-01T10:23:27.391Z,20.60
2022-09-01T10:26:25.970Z,20.60
2022-09-01T10:29:20.063Z,20.60
2022-09-01T10:32:31.363Z,20.70
2022-09-01T10:35:24.094Z,20.80
2022-09-01T10:38:16.714Z,20.80
2022-09-01T10:41:15.910Z,20.90
2022-09-01T10:44:12.674Z,21.10
2022-09-01T10:47:06.228Z,21.20
2022-09-01T10:50:07.670Z,21.30
2022-09-01T10:53:02.382Z,21.40
2022-09-01T10:56:18.450Z,21.40
2022-09-01T10:59:35.663Z,21.60
2022-09-01T11:02:26.998Z,21.60
2022-09-01T11:05:19.413Z,21.60
2022-09-01T11:08:22.968Z,21.60
2022-09-01T11:11:25.000Z,21.40
2022-09-01T11:14:23.038Z,21.30
2022-09-01T11:17:16.690Z,21.40
2022-09-01T11:20:10.317Z,21.60
2022-09-01T11:23:04.939Z,21.80
2022-09-01T11:29:01.379Z,21.80
2022-09-01T11:31:51.739Z,21.60
2022-09-01T11:34:43.970Z,21.50
2022-09-01T11:37:33.104Z,21.50
2022-09-01T11:40:24.222Z,21.60
2022-09-01T11:43:16.665Z,21.60
2022-09-01T11:46:16.374Z,21.70
2022-09-01T11:49:10.179Z,21.80
2022-09-01T11:51:58.540Z,22.00
2022-09-01T11:54:47.784Z,22.20
2022-09-01T11:57:37.432Z,22.30
2022-09-01T12:00:30.282Z,22.50
2022-09-01T12:03:24.166Z,22.60
2022-09-01T12:06:20.907Z,22.70
2022-09-01T12:09:08.303Z,22.70
2022-09-01T12:11:56.579Z,22.60
2022-09-01T12:15:04.829Z,22.60
2022-09-01T12:17:52.479Z,22.60
2022-09-01T12:20:41.426Z,22.50
2022-09-01T12:23:32.664Z,22.50
2022-09-01T12:26:23.980Z,22.60
2022-09-01T12:29:11.962Z,22.70
2022-09-01T12:31:59.141Z,22.70
2022-09-01T12:34:48.555Z,22.70
2022-09-01T12:37:36.214Z,22.70
2022-09-01T12:40:36.252Z,22.90
2022-09-01T12:43:39.859Z,23.00
2022-09-01T12:46:42.850Z,23.20
2022-09-01T12:49:45.260Z,23.20
2022-09-01T12:52:46.944Z,23.20
2022-09-01T12:55:53.039Z,23.20
2022-09-01T12:58:41.340Z,23.20
2022-09-01T13:01:32.624Z,23.20
2022-09-01T13:04:30.988Z,23.20
2022-09-01T13:07:18.249Z,23.20
2022-09-01T13:10:07.307Z,23.20
2022-09-01T13:12:58.193Z,23.30
2022-09-01T13:15:50.427Z,23.30
2022-09-01T13:21:44.963Z,23.40
2022-09-01T13:24:33.865Z,23.50
2022-09-01T13:27:22.307Z,23.40
2022-09-01T13:30:12.935Z,23.50
2022-09-01T13:39:16.359Z,23.20
2022-09-01T13:42:03.782Z,23.10
2022-09-01T13:44:54.077Z,22.90
2022-09-01T13:54:02.524Z,22.70
2022-09-01T13:56:51.426Z,22.70
2022-09-01T13:59:38.615Z,22.70
2022-09-01T14:02:26.307Z,22.70
2022-09-01T14:05:15.015Z,22.80
2022-09-01T14:08:02.729Z,22.90
2022-09-01T14:10:52.269Z,23.10
2022-09-01T14:13:40.400Z,23.30
2022-09-01T14:16:28.254Z,23.30
2022-09-01T14:19:25.568Z,23.30
2022-09-01T14:22:14.220Z,23.30
2022-09-01T14:25:01.510Z,23.20
2022-09-01T14:27:50.100Z,23.20
2022-09-01T14:30:42.862Z,23.20
2022-09-01T14:33:30.252Z,23.20
2022-09-01T14:36:22.156Z,23.00
2022-09-01T14:39:10.711Z,22.90
2022-09-01T14:41:58.056Z,22.80
2022-09-01T14:44:45.428Z,22.60
2022-09-01T14:47:33.786Z,22.60
2022-09-01T14:50:23.432Z,22.60
2022-09-01T14:53:11.288Z,22.60
2022-09-01T14:56:01.720Z,22.60
2022-09-01T14:58:49.935Z,22.60
2022-09-01T15:01:37.283Z,22.60
2022-09-01T15:04:25.011Z,22.60
2022-09-01T15:07:13.168Z,22.60
2022-09-01T15:10:00.737Z,22.60
2022-09-01T15:12:49.986Z,22.60
2022-09-01T15:15:37.137Z,22.60
2022-09-01T15:18:24.701Z,22.60
2022-09-01T15:21:21.850Z,22.60
2022-09-01T15:24:10.620Z,22.60
2022-09-01T15:26:59.050Z,22.60
2022-09-01T15:29:49.119Z,22.50
2022-09-01T15:32:36.130Z,22.50
2022-09-01T15:35:23.782Z,22.50
2022-09-01T15:38:13.454Z,22.50
2022-09-01T15:41:05.474Z,22.50
2022-09-01T15:43:53.203Z,22.50
2022-09-01T15:46:43.234Z,22.50
2022-09-01T15:49:32.301Z,22.40
2022-09-01T15:52:21.057Z,22.40
2022-09-01T15:55:08.855Z,22.40
2022-09-01T15:57:56.427Z,22.40
2022-09-01T16:00:45.637Z,22.30
2022-09-01T16:03:34.308Z,22.20
2022-09-01T16:06:21.668Z,22.00
2022-09-01T16:09:10.623Z,21.90
2022-09-01T16:11:58.092Z,21.80
2022-09-01T16:14:45.722Z,21.70
2022-09-01T16:17:49.700Z,21.60
2022-09-01T16:20:46.618Z,21.60
2022-09-01T16:23:41.652Z,21.60
2022-09-01T16:26:28.823Z,21.60
2022-09-01T16:29:22.288Z,21.60
2022-09-01T16:32:10.402Z,21.50
2022-09-01T16:34:58.736Z,21.50
2022-09-01T16:37:54.696Z,21.40
2022-09-01T16:40:48.362Z,21.40
2022-09-01T16:43:47.241Z,21.40
2022-09-01T16:46:46.752Z,21.30
2022-09-01T16:49:40.770Z,21.20
2022-09-01T16:52:30.719Z,21.20
2022-09-01T16:55:31.224Z,21.10
2022-09-01T16:58:23.387Z,21.00
2022-09-01T17:01:24.141Z,21.00
2022-09-01T17:04:21.515Z,21.00
2022-09-01T17:07:15.159Z,21.00
2022-09-01T17:10:07.906Z,20.90
2022-09-01T17:12:58.208Z,20.90
2022-09-01T17:15:52.063Z,20.80
2022-09-01T17:18:44.521Z,20.80
2022-09-01T17:21:34.689Z,20.70
2022-09-01T17:24:35.139Z,20.70
2022-09-01T17:27:31.273Z,20.70
2022-09-01T17:30:21.619Z,20.60
2022-09-01T17:33:23.309Z,20.50
2022-09-01T17:36:24.295Z,20.50
2022-09-01T17:39:22.883Z,20.40
2022-09-01T17:42:21.743Z,20.30
2022-09-01T17:45:16.786Z,20.20
2022-09-01T17:48:11.042Z,20.10
2022-09-01T17:51:08.047Z,20.10
2022-09-01T17:54:06.700Z,19.90
2022-09-01T17:56:59.455Z,19.80
2022-09-01T17:59:52.756Z,19.80
2022-09-01T18:03:02.562Z,19.80
2022-09-01T18:05:59.475Z,19.70
2022-09-01T18:08:54.053Z,19.70
2022-09-01T18:11:50.666Z,19.70
2022-09-01T18:14:43.422Z,19.70
2022-09-01T18:17:33.840Z,19.50
2022-09-01T18:20:27.446Z,19.50
2022-09-01T18:23:17.353Z,19.50
2022-09-01T18:26:14.038Z,19.30
2022-09-01T18:29:03.601Z,19.30
2022-09-01T18:32:05.189Z,19.30
2022-09-01T18:35:03.006Z,19.30
2022-09-01T18:38:02.626Z,19.20
2022-09-01T18:41:05.821Z,19.20
2022-09-01T18:44:01.970Z,19.20
2022-09-01T18:46:56.633Z,19.10
2022-09-01T18:49:55.202Z,19.10
2022-09-01T18:52:55.266Z,19.10
2022-09-01T18:55:51.960Z,19.10
2022-09-01T18:58:54.197Z,19.00
2022-09-01T19:01:50.359Z,18.90
2022-09-01T19:04:42.394Z,18.90
2022-09-01T19:07:37.352Z,18.90
2022-09-01T19:10:31.306Z,18.80
2022-09-01T19:13:32.677Z,18.70
2022-09-01T19:16:29.490Z,18.60
2022-09-01T19:19:24.780Z,18.50
2022-09-01T19:22:17.268Z,18.50
2022-09-01T19:25:23.020Z,18.40
2022-09-01T19:28:17.046Z,18.30
2022-09-01T19:31:10.142Z,18.30
2022-09-01T19:33:59.594Z,18.20
2022-09-01T19:36:49.557Z,18.10
2022-09-01T19:39:39.807Z,18.10
2022-09-01T19:42:32.726Z,18.00
2022-09-01T19:45:27.925Z,17.90
2022-09-01T19:48:20.485Z,18.00
2022-09-01T19:51:16.306Z,17.90
2022-09-01T19:54:12.319Z,17.90
2022-09-01T19:57:07.866Z,17.80
2022-09-01T20:00:05.231Z,17.70
2022-09-01T20:03:01.161Z,17.70
2022-09-01T20:05:54.459Z,17.60
2022-09-01T20:08:49.262Z,17.60
2022-09-01T20:11:46.676Z,17.50
2022-09-01T20:14:48.217Z,17.50
2022-09-01T20:17:42.023Z,17.50
2022-09-01T20:20:33.897Z,17.50
2022-09-01T20:23:28.615Z,17.40
2022-09-01T20:26:23.383Z,17.40
2022-09-01T20:29:16.618Z,17.30
2022-09-01T20:32:05.240Z,17.30
2022-09-01T20:35:00.089Z,17.20
2022-09-01T20:37:50.726Z,17.20
2022-09-01T20:40:41.545Z,17.10
2022-09-01T20:43:36.947Z,17.10
2022-09-01T20:46:26.904Z,17.10
2022-09-01T20:49:15.806Z,17.00
2022-09-01T20:52:11.844Z,17.00
2022-09-01T20:55:07.660Z,16.90
2022-09-01T20:58:04.158Z,16.80
2022-09-01T21:01:03.201Z,16.80
2022-09-01T21:04:03.264Z,16.80
2022-09-01T21:06:56.850Z,16.80
2022-09-01T21:09:50.037Z,16.70
2022-09-01T21:12:40.926Z,16.60
2022-09-01T21:15:39.456Z,16.60
2022-09-01T21:18:47.764Z,16.60
2022-09-01T21:21:42.717Z,16.50
2022-09-01T21:24:29.970Z,16.60
2022-09-01T21:27:19.852Z,16.50
2022-09-01T21:30:10.589Z,16.50
2022-09-01T21:32:57.732Z,16.40
2022-09-01T21:35:46.320Z,16.40
2022-09-01T21:38:33.383Z,16.30
2022-09-01T21:41:20.694Z,16.30
2022-09-01T21:44:08.222Z,16.20
2022-09-01T21:46:55.521Z,16.20
2022-09-01T21:49:44.003Z,16.10
2022-09-01T21:52:32.567Z,16.10
2022-09-01T21:55:23.032Z,16.10
2022-09-01T21:58:11.168Z,16.10
2022-09-01T22:00:58.774Z,16.00
2022-09-01T22:03:46.106Z,16.00
2022-09-01T22:06:34.538Z,15.90
2022-09-01T22:09:23.301Z,15.90
2022-09-01T22:12:10.749Z,15.80
2022-09-01T22:14:58.099Z,15.80
2022-09-01T22:17:47.022Z,15.80
2022-09-01T22:20:35.433Z,15.80
2022-09-01T22:23:22.922Z,15.80
2022-09-01T22:26:21.484Z,15.70
2022-09-01T22:29:08.884Z,15.70
2022-09-01T22:31:55.951Z,15.60
2022-09-01T22:34:43.535Z,15.60
2022-09-01T22:37:31.254Z,15.60
2022-09-01T22:40:19.265Z,15.60
2022-09-01T22:43:07.419Z,15.50
2022-09-01T22:45:56.101Z,15.50
2022-09-01T22:48:43.138Z,15.50
2022-09-01T22:51:31.065Z,15.50
2022-09-01T22:54:18.311Z,15.40
2022-09-01T22:57:05.554Z,15.40
2022-09-01T22:59:54.090Z,15.40
2022-09-01T23:02:41.997Z,15.40
2022-09-01T23:05:29.144Z,15.40
2022-09-01T23:08:17.752Z,15.40
2022-09-01T23:13:59.230Z,15.40
2022-09-01T23:16:51.354Z,15.40
2022-09-01T23:19:38.398Z,15.40
2022-09-01T23:22:25.280Z,15.40
2022-09-01T23:25:13.457Z,15.30
2022-09-01T23:28:00.433Z,15.30
2022-09-01T23:30:50.107Z,15.30
2022-09-01T23:33:38.642Z,15.30
2022-09-01T23:36:27.728Z,15.30
2022-09-01T23:39:15.304Z,15.20
2022-09-01T23:42:02.497Z,15.20
2022-09-01T23:44:50.288Z,15.20
2022-09-01T23:47:37.296Z,15.10
2022-09-01T23:50:25.638Z,15.10
2022-09-01T23:53:13.146Z,15.10
2022-09-01T23:56:03.950Z,15.10
2022-09-01T23:58:51.147Z,15.10
